createdAt,value
2023-02-28T00:00:39.547Z,97.18
2023-02-28T00:05:41.190Z,96.30
2023-02-28T00:10:42.702Z,96.54
2023-02-28T00:15:44.278Z,96.82
2023-02-28T00:20:46.137Z,97.21
2023-02-28T00:25:47.673Z,96.75
2023-02-28T00:30:49.228Z,97.43
2023-02-28T00:35:50.770Z,97.78
2023-02-28T00:40:52.276Z,98.37
2023-02-28T00:45:53.795Z,98.27
2023-02-28T00:50:55.567Z,98.32
2023-02-28T00:55:57.128Z,98.18
2023-02-28T01:00:58.644Z,98.45
2023-02-28T01:06:00.273Z,98.30
2023-02-28T01:11:09.888Z,97.09
2023-02-28T01:16:11.460Z,97.20
2023-02-28T01:21:16.627Z,97.53
2023-02-28T01:26:22.155Z,96.97
2023-02-28T01:31:24.629Z,97.36
2023-02-28T01:36:26.509Z,97.66
2023-02-28T01:41:32.170Z,97.17
2023-02-28T01:46:36.506Z,97.70
2023-02-28T01:51:54.170Z,97.99
2023-02-28T01:57:24.815Z,100.00
2023-02-28T02:02:28.371Z,98.36
2023-02-28T02:07:34.789Z,97.90
2023-02-28T02:12:59.569Z,98.10
2023-02-28T02:18:13.502Z,97.49
2023-02-28T02:23:28.554Z,99.40
2023-02-28T02:28:44.403Z,100.00
2023-02-28T02:34:08.245Z,100.00
2023-02-28T02:39:18.791Z,100.00
2023-02-28T02:44:32.404Z,98.68
2023-02-28T02:49:36.531Z,98.28
2023-02-28T02:54:41.324Z,99.21
2023-02-28T02:59:44.559Z,99.05
2023-02-28T03:04:54.588Z,98.58
2023-02-28T03:09:58.588Z,96.68
2023-02-28T03:15:16.910Z,97.32
2023-02-28T03:20:38.687Z,96.67
2023-02-28T03:26:31.065Z,98.45
2023-02-28T03:31:42.468Z,98.00
2023-02-28T03:36:53.480Z,97.50
2023-02-28T03:42:00.263Z,99.50
2023-02-28T03:47:08.702Z,100.00
2023-02-28T03:52:10.258Z,100.00
2023-02-28T03:57:18.957Z,100.00
2023-02-28T04:02:20.436Z,100.00
2023-02-28T04:07:22.022Z,100.00
2023-02-28T04:12:23.617Z,100.00
2023-02-28T04:17:25.103Z,100.00
2023-02-28T04:22:26.712Z,100.00
2023-02-28T04:27:28.183Z,100.00
2023-02-28T04:32:29.743Z,100.00
2023-02-28T04:37:31.283Z,100.00
2023-02-28T04:42:32.757Z,100.00
2023-02-28T04:47:34.240Z,97.78
2023-02-28T04:52:35.729Z,95.70
2023-02-28T04:57:37.258Z,93.43
2023-02-28T05:02:38.995Z,92.82
2023-02-28T05:07:40.570Z,92.72
2023-02-28T05:12:42.267Z,92.21
2023-02-28T05:17:44.574Z,91.11
2023-02-28T05:22:46.205Z,90.63
2023-02-28T05:27:47.773Z,90.77
2023-02-28T05:32:52.273Z,89.80
2023-02-28T05:37:53.867Z,90.23
2023-02-28T05:42:55.368Z,88.59
2023-02-28T05:47:56.893Z,87.65
2023-02-28T05:52:58.398Z,88.14
2023-02-28T05:57:59.993Z,88.38
2023-02-28T06:03:01.493Z,88.01
2023-02-28T06:08:03.050Z,87.10
2023-02-28T06:13:05.643Z,87.76
2023-02-28T06:18:07.174Z,87.54
2023-02-28T06:23:08.674Z,87.92
2023-02-28T06:28:10.231Z,87.42
2023-02-28T06:33:11.768Z,86.40
2023-02-28T06:38:13.301Z,86.53
2023-02-28T06:43:14.805Z,87.52
2023-02-28T06:48:16.800Z,86.18
2023-02-28T06:53:18.415Z,85.11
2023-02-28T06:58:19.911Z,83.88
2023-02-28T07:03:21.514Z,83.12
2023-02-28T07:08:24.638Z,81.91
2023-02-28T07:13:26.366Z,79.86
2023-02-28T07:18:27.977Z,78.67
2023-02-28T07:23:29.467Z,75.75
2023-02-28T07:28:31.014Z,72.33
2023-02-28T07:33:32.691Z,68.85
2023-02-28T07:38:37.997Z,66.42
2023-02-28T07:43:39.494Z,65.86
2023-02-28T07:48:40.978Z,64.84
2023-02-28T07:53:42.490Z,63.45
2023-02-28T07:58:43.969Z,61.61
2023-02-28T08:03:45.549Z,60.75
2023-02-28T08:08:47.848Z,60.06
2023-02-28T08:13:49.345Z,59.50
2023-02-28T08:18:52.728Z,58.98
2023-02-28T08:23:54.248Z,58.45
2023-02-28T08:28:57.273Z,56.07
2023-02-28T08:33:59.873Z,56.21
2023-02-28T08:39:01.571Z,53.41
2023-02-28T08:44:03.063Z,52.46
2023-02-28T08:49:04.588Z,51.42
2023-02-28T08:54:06.128Z,50.00
2023-02-28T08:59:09.977Z,49.54
2023-02-28T09:04:11.548Z,49.80
2023-02-28T09:09:13.026Z,51.22
2023-02-28T09:14:14.566Z,48.39
2023-02-28T09:19:16.113Z,48.26
2023-02-28T09:24:17.599Z,50.14
2023-02-28T09:29:19.206Z,48.00
2023-02-28T09:34:20.763Z,46.72
2023-02-28T09:39:23.702Z,46.20
2023-02-28T09:44:37.230Z,47.19
2023-02-28T09:49:43.344Z,48.06
2023-02-28T09:54:44.854Z,46.67
2023-02-28T09:59:52.141Z,46.85
2023-02-28T10:05:00.339Z,45.93
2023-02-28T10:10:08.158Z,45.74
2023-02-28T10:15:15.697Z,42.50
2023-02-28T10:20:23.623Z,45.25
2023-02-28T10:25:28.903Z,45.82
2023-02-28T10:30:30.426Z,46.46
2023-02-28T10:35:31.950Z,43.44
2023-02-28T10:40:36.099Z,44.17
2023-02-28T10:45:37.764Z,44.97
2023-02-28T10:50:48.079Z,44.03
2023-02-28T10:56:03.732Z,44.13
2023-02-28T11:01:05.227Z,39.48
2023-02-28T11:06:31.643Z,40.61
2023-02-28T11:11:45.045Z,41.91
2023-02-28T11:16:46.829Z,41.31
2023-02-28T11:22:01.274Z,44.23
2023-02-28T11:27:02.843Z,41.65
2023-02-28T11:32:13.646Z,40.07
2023-02-28T11:37:20.367Z,39.53
2023-02-28T11:42:32.601Z,38.78
2023-02-28T11:47:46.059Z,42.47
2023-02-28T11:52:55.522Z,42.26
2023-02-28T11:58:15.139Z,42.67
2023-02-28T12:03:28.855Z,42.38
2023-02-28T12:08:48.350Z,42.58
2023-02-28T12:14:30.958Z,44.86
2023-02-28T12:20:01.745Z,42.36
2023-02-28T12:25:05.894Z,40.64
2023-02-28T12:30:15.884Z,41.69
2023-02-28T12:35:22.815Z,39.95
2023-02-28T12:40:31.832Z,42.78
2023-02-28T12:45:49.259Z,41.34
2023-02-28T12:50:51.420Z,42.22
2023-02-28T12:56:18.456Z,43.29
2023-02-28T13:01:41.787Z,45.55
2023-02-28T13:06:58.544Z,43.99
2023-02-28T13:12:00.288Z,43.55
2023-02-28T13:17:07.843Z,44.03
2023-02-28T13:22:44.132Z,44.64
2023-02-28T13:27:45.643Z,46.39
2023-02-28T13:32:47.208Z,41.95
2023-02-28T13:37:49.192Z,41.92
2023-02-28T13:42:50.999Z,42.66
2023-02-28T13:47:54.029Z,43.49
2023-02-28T13:53:13.518Z,40.78
2023-02-28T13:58:44.699Z,41.98
2023-02-28T14:04:23.202Z,42.44
2023-02-28T14:09:27.301Z,41.39
2023-02-28T14:14:37.708Z,42.71
2023-02-28T14:19:40.995Z,42.90
2023-02-28T14:24:42.432Z,41.62
2023-02-28T14:30:05.724Z,45.92
2023-02-28T14:35:39.574Z,45.76
2023-02-28T14:40:41.661Z,43.71
2023-02-28T14:45:43.245Z,44.79
2023-02-28T14:50:51.830Z,44.42
2023-02-28T14:55:53.614Z,45.68
2023-02-28T15:00:57.620Z,45.51
2023-02-28T15:06:02.876Z,41.67
2023-02-28T15:11:10.148Z,43.36
2023-02-28T15:16:23.869Z,44.02
2023-02-28T15:21:40.315Z,44.41
2023-02-28T15:26:49.401Z,46.38
2023-02-28T15:31:58.226Z,44.34
2023-02-28T15:36:59.980Z,43.66
2023-02-28T15:42:12.452Z,46.64
2023-02-28T15:47:20.426Z,45.11
2023-02-28T15:52:38.427Z,45.80
2023-02-28T15:57:41.591Z,43.82
2023-02-28T16:02:45.450Z,46.55
2023-02-28T16:07:47.407Z,44.46
2023-02-28T16:12:48.930Z,45.51
2023-02-28T16:17:50.495Z,46.82
2023-02-28T16:22:52.557Z,49.09
2023-02-28T16:27:54.824Z,47.77
2023-02-28T16:32:56.831Z,46.98
2023-02-28T16:37:58.342Z,45.97
2023-02-28T16:43:01.588Z,52.90
2023-02-28T16:48:03.112Z,54.11
2023-02-28T16:53:04.614Z,53.91
2023-02-28T16:58:06.263Z,50.83
2023-02-28T17:03:31.948Z,50.20
2023-02-28T17:08:34.467Z,51.14
2023-02-28T17:13:35.960Z,50.60
2023-02-28T17:18:37.540Z,51.29
2023-02-28T17:23:39.040Z,50.75
2023-02-28T17:28:40.582Z,49.12
2023-02-28T17:33:42.136Z,49.67
2023-02-28T17:38:43.624Z,50.01
2023-02-28T17:43:45.163Z,50.44
2023-02-28T17:48:53.757Z,51.98
2023-02-28T17:53:55.277Z,52.42
2023-02-28T17:58:57.478Z,52.80
2023-02-28T18:03:59.039Z,52.88
2023-02-28T18:09:00.539Z,53.61
2023-02-28T18:14:02.057Z,56.07
2023-02-28T18:19:03.566Z,57.36
2023-02-28T18:24:05.191Z,57.70
2023-02-28T18:29:07.557Z,58.28
2023-02-28T18:34:09.155Z,57.57
2023-02-28T18:39:10.718Z,58.29
2023-02-28T18:44:20.968Z,58.26
2023-02-28T18:49:22.685Z,59.52
2023-02-28T18:54:24.190Z,60.00
2023-02-28T18:59:26.291Z,60.10
2023-02-28T19:04:27.889Z,60.44
2023-02-28T19:09:29.449Z,61.58
2023-02-28T19:14:31.231Z,62.46
2023-02-28T19:19:32.766Z,61.49
2023-02-28T19:24:34.288Z,62.05
2023-02-28T19:29:35.862Z,62.41
2023-02-28T19:34:37.373Z,63.75
2023-02-28T19:39:39.070Z,63.95
2023-02-28T19:44:41.229Z,65.17
2023-02-28T19:49:42.706Z,66.46
2023-02-28T19:54:44.195Z,66.65
2023-02-28T19:59:45.763Z,67.18
2023-02-28T20:04:48.934Z,66.35
2023-02-28T20:09:50.532Z,66.64
2023-02-28T20:14:53.280Z,67.23
2023-02-28T20:19:54.753Z,69.20
2023-02-28T20:24:56.243Z,70.00
2023-02-28T20:29:57.783Z,71.07
2023-02-28T20:34:59.287Z,70.84
2023-02-28T20:40:00.770Z,70.95
2023-02-28T20:45:02.301Z,71.30
2023-02-28T20:50:04.040Z,70.29
2023-02-28T20:55:06.435Z,69.80
2023-02-28T21:00:08.971Z,70.93
2023-02-28T21:05:10.464Z,70.53
2023-02-28T21:10:12.110Z,71.13
2023-02-28T21:15:13.639Z,71.17
2023-02-28T21:20:15.363Z,71.88
2023-02-28T21:25:16.970Z,71.74
2023-02-28T21:30:18.645Z,72.38
2023-02-28T21:35:20.225Z,73.36
2023-02-28T21:40:21.904Z,72.87
2023-02-28T21:45:23.388Z,73.22
2023-02-28T21:50:24.933Z,74.30
2023-02-28T21:55:26.416Z,74.89
2023-02-28T22:00:27.978Z,75.46
2023-02-28T22:05:29.713Z,75.76
2023-02-28T22:10:33.980Z,75.73
2023-02-28T22:15:37.402Z,76.38
2023-02-28T22:20:38.898Z,76.77
2023-02-28T22:25:40.409Z,77.13
2023-02-28T22:30:41.906Z,81.80
2023-02-28T22:35:43.443Z,84.17
2023-02-28T22:40:44.997Z,85.54
2023-02-28T22:45:46.522Z,86.94
2023-02-28T22:50:48.051Z,90.29
2023-02-28T22:55:54.863Z,92.89
2023-02-28T23:00:56.655Z,92.60
2023-02-28T23:05:58.240Z,92.78
2023-02-28T23:10:59.753Z,93.61
2023-02-28T23:16:04.612Z,93.71
2023-02-28T23:21:06.132Z,95.71
2023-02-28T23:26:08.407Z,98.82
2023-02-28T23:31:09.934Z,98.03
2023-02-28T23:36:13.506Z,96.19
2023-02-28T23:41:16.305Z,92.70
2023-02-28T23:46:18.192Z,89.72
2023-02-28T23:51:21.532Z,88.93
2023-02-28T23:56:25.142Z,89.65
